sensor_id;sensor_type;location;lat;lon;timestamp;temperature;humidity
20712;DHT22;10517;50.742;4.224;2023-02-23T00:01:37;10.10;99.90
20712;DHT22;10517;50.742;4.224;2023-02-23T00:04:04;10.00;99.90
20712;DHT22;10517;50.742;4.224;2023-02-23T00:06:31;10.00;99.90
20712;DHT22;10517;50.742;4.224;2023-02-23T00:08:57;10.00;99.90
20712;DHT22;10517;50.742;4.224;2023-02-23T00:11:26;10.00;99.90
20712;DHT22;10517;50.742;4.224;2023-02-23T00:13:52;10.00;99.90
20712;DHT22;10517;50.742;4.224;2023-02-23T00:16:21;10.00;99.90
20712;DHT22;10517;50.742;4.224;2023-02-23T00:21:26;10.00;99.90
20712;DHT22;10517;50.742;4.224;2023-02-23T00:23:59;10.10;99.90
20712;DHT22;10517;50.742;4.224;2023-02-23T00:26:27;10.10;99.90
20712;DHT22;10517;50.742;4.224;2023-02-23T00:28:59;9.90;99.90
20712;DHT22;10517;50.742;4.224;2023-02-23T00:31:26;9.90;99.90
20712;DHT22;10517;50.742;4.224;2023-02-23T00:33:56;9.90;99.90
20712;DHT22;10517;50.742;4.224;2023-02-23T00:36:24;9.90;99.90
20712;DHT22;10517;50.742;4.224;2023-02-23T00:38:54;9.90;99.90
20712;DHT22;10517;50.742;4.224;2023-02-23T00:41:20;9.90;99.90
20712;DHT22;10517;50.742;4.224;2023-02-23T00:43:48;9.90;99.90
20712;DHT22;10517;50.742;4.224;2023-02-23T00:46:16;9.80;99.90
20712;DHT22;10517;50.742;4.224;2023-02-23T00:48:43;9.90;99.90
20712;DHT22;10517;50.742;4.224;2023-02-23T00:51:10;9.90;99.90
20712;DHT22;10517;50.742;4.224;2023-02-23T00:53:36;9.90;99.90
20712;DHT22;10517;50.742;4.224;2023-02-23T00:56:06;9.90;99.90
20712;DHT22;10517;50.742;4.224;2023-02-23T00:58:32;9.80;99.90
20712;DHT22;10517;50.742;4.224;2023-02-23T01:00:57;9.70;99.90
20712;DHT22;10517;50.742;4.224;2023-02-23T01:03:27;9.70;99.90
20712;DHT22;10517;50.742;4.224;2023-02-23T01:05:57;9.60;99.90
20712;DHT22;10517;50.742;4.224;2023-02-23T01:08:23;9.60;99.90
20712;DHT22;10517;50.742;4.224;2023-02-23T01:10:48;9.70;99.90
20712;DHT22;10517;50.742;4.224;2023-02-23T01:13:19;9.70;99.90
20712;DHT22;10517;50.742;4.224;2023-02-23T01:15:45;9.70;99.90
20712;DHT22;10517;50.742;4.224;2023-02-23T01:18:16;9.70;99.90
20712;DHT22;10517;50.742;4.224;2023-02-23T01:20:43;9.70;99.90
20712;DHT22;10517;50.742;4.224;2023-02-23T01:23:13;9.60;99.90
20712;DHT22;10517;50.742;4.224;2023-02-23T01:25:40;9.50;99.90
20712;DHT22;10517;50.742;4.224;2023-02-23T01:28:08;9.60;99.90
20712;DHT22;10517;50.742;4.224;2023-02-23T01:30:34;9.70;99.90
20712;DHT22;10517;50.742;4.224;2023-02-23T01:32:59;9.70;99.90
20712;DHT22;10517;50.742;4.224;2023-02-23T01:35:27;9.70;99.90
20712;DHT22;10517;50.742;4.224;2023-02-23T01:37:53;9.60;99.90
20712;DHT22;10517;50.742;4.224;2023-02-23T01:40:23;9.70;99.90
20712;DHT22;10517;50.742;4.224;2023-02-23T01:43:16;9.70;99.90
20712;DHT22;10517;50.742;4.224;2023-02-23T01:45:43;9.60;99.90
20712;DHT22;10517;50.742;4.224;2023-02-23T01:48:12;9.70;99.90
20712;DHT22;10517;50.742;4.224;2023-02-23T01:50:53;9.60;99.90
20712;DHT22;10517;50.742;4.224;2023-02-23T01:53:20;9.60;99.90
20712;DHT22;10517;50.742;4.224;2023-02-23T01:55:53;9.50;99.90
20712;DHT22;10517;50.742;4.224;2023-02-23T01:58:21;9.50;99.90
20712;DHT22;10517;50.742;4.224;2023-02-23T02:00:54;9.50;99.90
20712;DHT22;10517;50.742;4.224;2023-02-23T02:05:53;9.50;99.90
20712;DHT22;10517;50.742;4.224;2023-02-23T02:08:19;9.60;99.90
20712;DHT22;10517;50.742;4.224;2023-02-23T02:10:48;9.70;99.90
20712;DHT22;10517;50.742;4.224;2023-02-23T02:13:22;9.60;99.90
20712;DHT22;10517;50.742;4.224;2023-02-23T02:16:06;9.70;99.90
20712;DHT22;10517;50.742;4.224;2023-02-23T02:26:51;9.50;99.90
20712;DHT22;10517;50.742;4.224;2023-02-23T02:37:54;9.20;99.90
20712;DHT22;10517;50.742;4.224;2023-02-23T02:40:44;9.20;99.90
20712;DHT22;10517;50.742;4.224;2023-02-23T02:43:59;9.30;99.90
20712;DHT22;10517;50.742;4.224;2023-02-23T02:46:36;9.30;99.90
20712;DHT22;10517;50.742;4.224;2023-02-23T02:56:46;9.10;99.90
20712;DHT22;10517;50.742;4.224;2023-02-23T02:59:16;8.90;99.90
20712;DHT22;10517;50.742;4.224;2023-02-23T03:02:02;8.80;99.90
20712;DHT22;10517;50.742;4.224;2023-02-23T03:04:46;8.80;99.90
20712;DHT22;10517;50.742;4.224;2023-02-23T03:07:52;8.90;99.90
20712;DHT22;10517;50.742;4.224;2023-02-23T03:11:07;8.80;99.90
20712;DHT22;10517;50.742;4.224;2023-02-23T03:17:12;8.80;99.90
20712;DHT22;10517;50.742;4.224;2023-02-23T03:26:12;8.90;99.90
20712;DHT22;10517;50.742;4.224;2023-02-23T03:29:08;8.80;99.90
20712;DHT22;10517;50.742;4.224;2023-02-23T03:35:24;8.90;99.90
20712;DHT22;10517;50.742;4.224;2023-02-23T03:38:18;8.90;99.90
20712;DHT22;10517;50.742;4.224;2023-02-23T03:41:05;8.80;99.90
20712;DHT22;10517;50.742;4.224;2023-02-23T03:43:54;8.90;99.90
20712;DHT22;10517;50.742;4.224;2023-02-23T03:46:42;8.90;99.90
20712;DHT22;10517;50.742;4.224;2023-02-23T03:49:32;9.00;99.90
20712;DHT22;10517;50.742;4.224;2023-02-23T03:52:20;9.00;99.90
20712;DHT22;10517;50.742;4.224;2023-02-23T03:55:14;9.00;99.90
20712;DHT22;10517;50.742;4.224;2023-02-23T03:58:00;9.00;99.90
20712;DHT22;10517;50.742;4.224;2023-02-23T04:00:47;8.90;99.90
20712;DHT22;10517;50.742;4.224;2023-02-23T04:03:35;8.80;99.90
20712;DHT22;10517;50.742;4.224;2023-02-23T04:06:24;8.70;99.90
20712;DHT22;10517;50.742;4.224;2023-02-23T04:09:09;8.70;99.90
20712;DHT22;10517;50.742;4.224;2023-02-23T04:15:29;8.90;99.90
20712;DHT22;10517;50.742;4.224;2023-02-23T04:17:56;8.90;99.90
20712;DHT22;10517;50.742;4.224;2023-02-23T04:20:22;8.70;99.90
20712;DHT22;10517;50.742;4.224;2023-02-23T04:22:47;8.70;99.90
20712;DHT22;10517;50.742;4.224;2023-02-23T04:25:15;8.70;99.90
20712;DHT22;10517;50.742;4.224;2023-02-23T04:27:41;8.80;99.90
20712;DHT22;10517;50.742;4.224;2023-02-23T04:30:07;8.80;99.90
20712;DHT22;10517;50.742;4.224;2023-02-23T04:32:36;8.80;99.90
20712;DHT22;10517;50.742;4.224;2023-02-23T04:35:02;8.80;99.90
20712;DHT22;10517;50.742;4.224;2023-02-23T04:37:27;8.70;99.90
20712;DHT22;10517;50.742;4.224;2023-02-23T04:39:53;8.70;99.90
20712;DHT22;10517;50.742;4.224;2023-02-23T04:42:19;8.70;99.90
20712;DHT22;10517;50.742;4.224;2023-02-23T04:44:44;8.70;99.90
20712;DHT22;10517;50.742;4.224;2023-02-23T04:47:11;8.70;99.90
20712;DHT22;10517;50.742;4.224;2023-02-23T04:49:37;8.70;99.90
20712;DHT22;10517;50.742;4.224;2023-02-23T04:52:03;8.80;99.90
20712;DHT22;10517;50.742;4.224;2023-02-23T04:54:28;8.80;99.90
20712;DHT22;10517;50.742;4.224;2023-02-23T04:56:54;8.80;99.90
20712;DHT22;10517;50.742;4.224;2023-02-23T04:59:19;8.80;99.90
20712;DHT22;10517;50.742;4.224;2023-02-23T05:01:45;8.90;99.90
20712;DHT22;10517;50.742;4.224;2023-02-23T05:04:11;8.90;99.90
20712;DHT22;10517;50.742;4.224;2023-02-23T05:06:36;9.10;99.90
20712;DHT22;10517;50.742;4.224;2023-02-23T05:09:02;9.00;99.90
20712;DHT22;10517;50.742;4.224;2023-02-23T05:11:29;9.10;99.90
20712;DHT22;10517;50.742;4.224;2023-02-23T05:13:55;9.20;99.90
20712;DHT22;10517;50.742;4.224;2023-02-23T05:16:20;9.00;99.90
20712;DHT22;10517;50.742;4.224;2023-02-23T05:18:46;8.90;99.90
20712;DHT22;10517;50.742;4.224;2023-02-23T05:21:12;8.90;99.90
20712;DHT22;10517;50.742;4.224;2023-02-23T05:23:38;8.90;99.90
20712;DHT22;10517;50.742;4.224;2023-02-23T05:26:06;8.80;99.90
20712;DHT22;10517;50.742;4.224;2023-02-23T05:28:34;8.90;99.90
20712;DHT22;10517;50.742;4.224;2023-02-23T05:31:00;8.90;99.90
20712;DHT22;10517;50.742;4.224;2023-02-23T05:33:28;8.90;99.90
20712;DHT22;10517;50.742;4.224;2023-02-23T05:35:53;9.10;99.90
20712;DHT22;10517;50.742;4.224;2023-02-23T05:38:19;9.10;99.90
20712;DHT22;10517;50.742;4.224;2023-02-23T05:40:46;9.10;99.90
20712;DHT22;10517;50.742;4.224;2023-02-23T05:43:12;9.10;99.90
20712;DHT22;10517;50.742;4.224;2023-02-23T05:45:41;9.10;99.90
20712;DHT22;10517;50.742;4.224;2023-02-23T05:48:09;9.10;99.90
20712;DHT22;10517;50.742;4.224;2023-02-23T05:50:34;9.10;99.90
20712;DHT22;10517;50.742;4.224;2023-02-23T05:53:00;9.20;99.90
20712;DHT22;10517;50.742;4.224;2023-02-23T05:55:26;9.30;99.90
20712;DHT22;10517;50.742;4.224;2023-02-23T05:57:51;9.20;99.90
20712;DHT22;10517;50.742;4.224;2023-02-23T06:00:17;9.10;99.90
20712;DHT22;10517;50.742;4.224;2023-02-23T06:02:43;9.00;99.90
20712;DHT22;10517;50.742;4.224;2023-02-23T06:05:10;9.10;99.90
20712;DHT22;10517;50.742;4.224;2023-02-23T06:07:36;9.20;99.90
20712;DHT22;10517;50.742;4.224;2023-02-23T06:10:02;9.10;99.90
20712;DHT22;10517;50.742;4.224;2023-02-23T06:12:28;9.10;99.90
20712;DHT22;10517;50.742;4.224;2023-02-23T06:14:54;9.20;99.90
20712;DHT22;10517;50.742;4.224;2023-02-23T06:17:19;9.20;99.90
20712;DHT22;10517;50.742;4.224;2023-02-23T06:19:45;9.20;99.90
20712;DHT22;10517;50.742;4.224;2023-02-23T06:22:10;9.10;99.90
20712;DHT22;10517;50.742;4.224;2023-02-23T06:24:36;9.20;99.90
20712;DHT22;10517;50.742;4.224;2023-02-23T06:27:02;9.30;99.90
20712;DHT22;10517;50.742;4.224;2023-02-23T06:29:28;9.30;99.90
20712;DHT22;10517;50.742;4.224;2023-02-23T06:31:54;9.10;99.90
20712;DHT22;10517;50.742;4.224;2023-02-23T06:34:19;9.00;99.90
20712;DHT22;10517;50.742;4.224;2023-02-23T06:36:45;9.00;99.90
20712;DHT22;10517;50.742;4.224;2023-02-23T06:39:11;9.20;99.90
20712;DHT22;10517;50.742;4.224;2023-02-23T06:41:36;9.20;99.90
20712;DHT22;10517;50.742;4.224;2023-02-23T06:44:02;9.00;99.90
20712;DHT22;10517;50.742;4.224;2023-02-23T06:46:28;8.80;99.90
20712;DHT22;10517;50.742;4.224;2023-02-23T06:48:55;8.60;99.90
20712;DHT22;10517;50.742;4.224;2023-02-23T06:51:20;8.50;99.90
20712;DHT22;10517;50.742;4.224;2023-02-23T06:53:46;8.40;99.90
20712;DHT22;10517;50.742;4.224;2023-02-23T06:56:11;8.40;99.90
20712;DHT22;10517;50.742;4.224;2023-02-23T06:58:38;8.50;99.90
20712;DHT22;10517;50.742;4.224;2023-02-23T07:01:04;8.50;99.90
20712;DHT22;10517;50.742;4.224;2023-02-23T07:03:30;8.60;99.90
20712;DHT22;10517;50.742;4.224;2023-02-23T07:05:55;8.60;99.90
20712;DHT22;10517;50.742;4.224;2023-02-23T07:08:21;8.60;99.90
20712;DHT22;10517;50.742;4.224;2023-02-23T07:10:46;8.60;99.90
20712;DHT22;10517;50.742;4.224;2023-02-23T07:13:12;8.60;99.90
20712;DHT22;10517;50.742;4.224;2023-02-23T07:15:38;8.60;99.90
20712;DHT22;10517;50.742;4.224;2023-02-23T07:18:04;8.60;99.90
20712;DHT22;10517;50.742;4.224;2023-02-23T07:20:30;8.70;99.90
20712;DHT22;10517;50.742;4.224;2023-02-23T07:22:58;8.50;99.90
20712;DHT22;10517;50.742;4.224;2023-02-23T07:25:28;8.40;99.90
20712;DHT22;10517;50.742;4.224;2023-02-23T07:27:54;8.40;99.90
20712;DHT22;10517;50.742;4.224;2023-02-23T07:30:20;8.50;99.90
20712;DHT22;10517;50.742;4.224;2023-02-23T07:32:49;8.60;99.90
20712;DHT22;10517;50.742;4.224;2023-02-23T07:35:15;8.70;99.90
20712;DHT22;10517;50.742;4.224;2023-02-23T07:37:41;8.60;99.90
20712;DHT22;10517;50.742;4.224;2023-02-23T07:40:07;8.60;99.90
20712;DHT22;10517;50.742;4.224;2023-02-23T07:42:33;8.50;99.90
20712;DHT22;10517;50.742;4.224;2023-02-23T07:44:59;8.50;99.90
20712;DHT22;10517;50.742;4.224;2023-02-23T07:47:25;8.50;99.90
20712;DHT22;10517;50.742;4.224;2023-02-23T07:49:58;8.60;99.90
20712;DHT22;10517;50.742;4.224;2023-02-23T07:52:24;8.70;99.90
20712;DHT22;10517;50.742;4.224;2023-02-23T07:54:50;8.80;99.90
20712;DHT22;10517;50.742;4.224;2023-02-23T07:57:16;8.80;99.90
20712;DHT22;10517;50.742;4.224;2023-02-23T07:59:41;8.80;99.90
20712;DHT22;10517;50.742;4.224;2023-02-23T08:02:10;8.80;99.90
20712;DHT22;10517;50.742;4.224;2023-02-23T08:04:37;8.70;99.90
20712;DHT22;10517;50.742;4.224;2023-02-23T08:07:03;8.60;99.90
20712;DHT22;10517;50.742;4.224;2023-02-23T08:09:28;8.60;99.90
20712;DHT22;10517;50.742;4.224;2023-02-23T08:11:56;8.60;99.90
20712;DHT22;10517;50.742;4.224;2023-02-23T08:14:22;8.50;99.90
20712;DHT22;10517;50.742;4.224;2023-02-23T08:16:49;8.50;99.90
20712;DHT22;10517;50.742;4.224;2023-02-23T08:19:14;8.40;99.90
20712;DHT22;10517;50.742;4.224;2023-02-23T08:21:40;8.60;99.90
20712;DHT22;10517;50.742;4.224;2023-02-23T08:24:07;8.50;99.90
20712;DHT22;10517;50.742;4.224;2023-02-23T08:26:35;8.50;99.90
20712;DHT22;10517;50.742;4.224;2023-02-23T08:29:01;8.50;99.90
20712;DHT22;10517;50.742;4.224;2023-02-23T08:31:26;8.50;99.90
20712;DHT22;10517;50.742;4.224;2023-02-23T08:33:52;8.60;99.90
20712;DHT22;10517;50.742;4.224;2023-02-23T08:36:18;8.60;99.90
20712;DHT22;10517;50.742;4.224;2023-02-23T08:38:45;8.80;99.90
20712;DHT22;10517;50.742;4.224;2023-02-23T08:41:10;8.80;99.90
20712;DHT22;10517;50.742;4.224;2023-02-23T08:43:36;8.80;99.90
20712;DHT22;10517;50.742;4.224;2023-02-23T08:46:04;8.90;99.90
20712;DHT22;10517;50.742;4.224;2023-02-23T08:48:30;9.00;99.90
20712;DHT22;10517;50.742;4.224;2023-02-23T08:50:57;9.10;99.90
20712;DHT22;10517;50.742;4.224;2023-02-23T08:53:23;9.10;99.90
20712;DHT22;10517;50.742;4.224;2023-02-23T08:55:54;9.10;99.90
20712;DHT22;10517;50.742;4.224;2023-02-23T08:58:20;9.10;99.90
20712;DHT22;10517;50.742;4.224;2023-02-23T09:00:46;9.10;99.90
20712;DHT22;10517;50.742;4.224;2023-02-23T09:03:11;9.30;99.90
20712;DHT22;10517;50.742;4.224;2023-02-23T09:05:37;9.50;99.90
20712;DHT22;10517;50.742;4.224;2023-02-23T09:08:03;9.50;99.90
20712;DHT22;10517;50.742;4.224;2023-02-23T09:10:28;9.60;99.90
20712;DHT22;10517;50.742;4.224;2023-02-23T09:12:54;9.70;99.90
20712;DHT22;10517;50.742;4.224;2023-02-23T09:15:20;9.80;99.90
20712;DHT22;10517;50.742;4.224;2023-02-23T09:17:46;9.90;99.90
20712;DHT22;10517;50.742;4.224;2023-02-23T09:20:13;10.00;99.90
20712;DHT22;10517;50.742;4.224;2023-02-23T09:22:41;10.10;99.90
20712;DHT22;10517;50.742;4.224;2023-02-23T09:25:14;10.10;99.90
20712;DHT22;10517;50.742;4.224;2023-02-23T09:27:39;10.30;99.90
20712;DHT22;10517;50.742;4.224;2023-02-23T09:30:05;10.50;99.90
20712;DHT22;10517;50.742;4.224;2023-02-23T09:32:31;10.60;99.90
20712;DHT22;10517;50.742;4.224;2023-02-23T09:34:56;10.50;99.90
20712;DHT22;10517;50.742;4.224;2023-02-23T09:37:22;10.50;99.90
20712;DHT22;10517;50.742;4.224;2023-02-23T09:39:49;10.60;99.90
20712;DHT22;10517;50.742;4.224;2023-02-23T09:42:32;10.50;99.90
20712;DHT22;10517;50.742;4.224;2023-02-23T09:48:27;10.50;99.90
20712;DHT22;10517;50.742;4.224;2023-02-23T09:50:36;10.60;99.90
20712;DHT22;10517;50.742;4.224;2023-02-23T09:55:54;10.50;99.90
20712;DHT22;10517;50.742;4.224;2023-02-23T09:58:24;10.80;99.90
20712;DHT22;10517;50.742;4.224;2023-02-23T10:06:28;10.80;99.90
20712;DHT22;10517;50.742;4.224;2023-02-23T10:09:37;10.70;99.90
20712;DHT22;10517;50.742;4.224;2023-02-23T10:12:18;10.80;99.90
20712;DHT22;10517;50.742;4.224;2023-02-23T10:14:58;10.80;99.90
20712;DHT22;10517;50.742;4.224;2023-02-23T10:17:54;11.00;99.90
20712;DHT22;10517;50.742;4.224;2023-02-23T10:23:11;10.80;99.90
20712;DHT22;10517;50.742;4.224;2023-02-23T10:25:45;10.80;99.90
20712;DHT22;10517;50.742;4.224;2023-02-23T10:28:16;10.80;99.90
20712;DHT22;10517;50.742;4.224;2023-02-23T10:30:44;10.80;99.90
20712;DHT22;10517;50.742;4.224;2023-02-23T10:35:44;11.00;99.90
20712;DHT22;10517;50.742;4.224;2023-02-23T10:38:15;10.90;99.90
20712;DHT22;10517;50.742;4.224;2023-02-23T10:40:42;10.80;99.90
20712;DHT22;10517;50.742;4.224;2023-02-23T10:43:11;10.80;99.90
20712;DHT22;10517;50.742;4.224;2023-02-23T10:45:43;10.70;99.90
20712;DHT22;10517;50.742;4.224;2023-02-23T10:48:18;10.70;99.90
20712;DHT22;10517;50.742;4.224;2023-02-23T10:50:45;10.70;99.90
20712;DHT22;10517;50.742;4.224;2023-02-23T10:53:29;10.70;99.90
20712;DHT22;10517;50.742;4.224;2023-02-23T10:58:49;10.80;99.90
20712;DHT22;10517;50.742;4.224;2023-02-23T11:03:56;10.50;99.90
20712;DHT22;10517;50.742;4.224;2023-02-23T11:06:38;10.60;99.90
20712;DHT22;10517;50.742;4.224;2023-02-23T11:12:00;10.70;99.90
20712;DHT22;10517;50.742;4.224;2023-02-23T11:14:28;10.70;99.90
20712;DHT22;10517;50.742;4.224;2023-02-23T11:16:56;10.60;99.90
20712;DHT22;10517;50.742;4.224;2023-02-23T11:19:32;10.50;99.90
20712;DHT22;10517;50.742;4.224;2023-02-23T11:21:58;10.50;99.90
20712;DHT22;10517;50.742;4.224;2023-02-23T11:24:31;10.60;99.90
20712;DHT22;10517;50.742;4.224;2023-02-23T11:27:00;10.70;99.90
20712;DHT22;10517;50.742;4.224;2023-02-23T11:29:37;10.70;99.90
20712;DHT22;10517;50.742;4.224;2023-02-23T11:32:20;10.70;99.90
20712;DHT22;10517;50.742;4.224;2023-02-23T11:34:47;10.80;99.90
20712;DHT22;10517;50.742;4.224;2023-02-23T11:39:56;10.90;99.90
20712;DHT22;10517;50.742;4.224;2023-02-23T11:42:27;10.70;99.90
20712;DHT22;10517;50.742;4.224;2023-02-23T11:45:17;10.80;99.90
20712;DHT22;10517;50.742;4.224;2023-02-23T11:47:49;10.80;99.90
20712;DHT22;10517;50.742;4.224;2023-02-23T11:53:11;10.90;99.90
20712;DHT22;10517;50.742;4.224;2023-02-23T11:55:39;10.70;99.90
20712;DHT22;10517;50.742;4.224;2023-02-23T12:00:59;10.80;99.90
20712;DHT22;10517;50.742;4.224;2023-02-23T12:03:28;10.80;99.90
20712;DHT22;10517;50.742;4.224;2023-02-23T12:05:55;10.90;99.90
20712;DHT22;10517;50.742;4.224;2023-02-23T12:08:46;10.80;99.90
20712;DHT22;10517;50.742;4.224;2023-02-23T12:11:18;10.50;99.90
20712;DHT22;10517;50.742;4.224;2023-02-23T12:16:54;10.50;99.90
20712;DHT22;10517;50.742;4.224;2023-02-23T12:19:30;10.60;99.90
20712;DHT22;10517;50.742;4.224;2023-02-23T12:22:10;10.50;99.90
20712;DHT22;10517;50.742;4.224;2023-02-23T12:24:43;10.50;99.90
20712;DHT22;10517;50.742;4.224;2023-02-23T12:27:21;10.60;99.90
20712;DHT22;10517;50.742;4.224;2023-02-23T12:38:30;10.70;99.90
20712;DHT22;10517;50.742;4.224;2023-02-23T12:41:23;10.80;99.90
20712;DHT22;10517;50.742;4.224;2023-02-23T12:43:58;10.90;99.90
20712;DHT22;10517;50.742;4.224;2023-02-23T12:46:27;10.90;99.90
20712;DHT22;10517;50.742;4.224;2023-02-23T12:49:27;10.90;99.90
20712;DHT22;10517;50.742;4.224;2023-02-23T12:52:01;10.80;99.90
20712;DHT22;10517;50.742;4.224;2023-02-23T12:54:33;10.90;99.90
20712;DHT22;10517;50.742;4.224;2023-02-23T13:05:59;10.90;99.90
20712;DHT22;10517;50.742;4.224;2023-02-23T13:11:53;11.10;99.90
20712;DHT22;10517;50.742;4.224;2023-02-23T13:14:35;11.30;99.90
20712;DHT22;10517;50.742;4.224;2023-02-23T13:20:00;11.50;99.90
20712;DHT22;10517;50.742;4.224;2023-02-23T13:22:35;11.40;99.90
20712;DHT22;10517;50.742;4.224;2023-02-23T13:25:18;11.30;99.90
20712;DHT22;10517;50.742;4.224;2023-02-23T13:27:55;11.30;99.90
20712;DHT22;10517;50.742;4.224;2023-02-23T13:30:22;11.10;99.90
20712;DHT22;10517;50.742;4.224;2023-02-23T13:32:48;11.10;99.90
20712;DHT22;10517;50.742;4.224;2023-02-23T13:35:16;10.90;99.90
20712;DHT22;10517;50.742;4.224;2023-02-23T13:45:49;10.70;99.90
20712;DHT22;10517;50.742;4.224;2023-02-23T13:51:11;10.50;99.90
20712;DHT22;10517;50.742;4.224;2023-02-23T13:53:57;10.60;99.90
20712;DHT22;10517;50.742;4.224;2023-02-23T13:56:27;10.70;99.90
20712;DHT22;10517;50.742;4.224;2023-02-23T13:58:58;10.70;99.90
20712;DHT22;10517;50.742;4.224;2023-02-23T14:01:36;10.70;99.90
20712;DHT22;10517;50.742;4.224;2023-02-23T14:04:12;10.70;99.90
20712;DHT22;10517;50.742;4.224;2023-02-23T14:06:39;10.50;99.90
20712;DHT22;10517;50.742;4.224;2023-02-23T14:09:23;10.60;99.90
20712;DHT22;10517;50.742;4.224;2023-02-23T14:11:51;10.60;99.90
20712;DHT22;10517;50.742;4.224;2023-02-23T14:14:41;10.60;99.90
20712;DHT22;10517;50.742;4.224;2023-02-23T14:20:01;10.80;99.90
20712;DHT22;10517;50.742;4.224;2023-02-23T14:22:30;10.80;99.90
20712;DHT22;10517;50.742;4.224;2023-02-23T14:27:59;10.80;99.90
20712;DHT22;10517;50.742;4.224;2023-02-23T14:30:27;10.80;99.90
20712;DHT22;10517;50.742;4.224;2023-02-23T14:32:53;10.90;99.90
20712;DHT22;10517;50.742;4.224;2023-02-23T14:35:46;10.90;99.90
20712;DHT22;10517;50.742;4.224;2023-02-23T14:38:24;10.80;99.90
20712;DHT22;10517;50.742;4.224;2023-02-23T14:40:53;10.80;99.90
20712;DHT22;10517;50.742;4.224;2023-02-23T14:43:39;10.90;99.90
20712;DHT22;10517;50.742;4.224;2023-02-23T14:46:20;11.10;99.90
20712;DHT22;10517;50.742;4.224;2023-02-23T14:49:09;11.40;99.90
20712;DHT22;10517;50.742;4.224;2023-02-23T14:54:37;11.60;99.90
20712;DHT22;10517;50.742;4.224;2023-02-23T14:57:16;11.40;99.90
20712;DHT22;10517;50.742;4.224;2023-02-23T14:59:43;11.40;99.90
20712;DHT22;10517;50.742;4.224;2023-02-23T15:02:10;11.30;99.90
20712;DHT22;10517;50.742;4.224;2023-02-23T15:04:36;11.30;99.90
20712;DHT22;10517;50.742;4.224;2023-02-23T15:07:04;11.40;99.90
20712;DHT22;10517;50.742;4.224;2023-02-23T15:09:39;11.20;99.90
20712;DHT22;10517;50.742;4.224;2023-02-23T15:12:26;11.10;99.90
20712;DHT22;10517;50.742;4.224;2023-02-23T15:14:56;11.00;99.90
20712;DHT22;10517;50.742;4.224;2023-02-23T15:17:25;11.00;99.90
20712;DHT22;10517;50.742;4.224;2023-02-23T15:20:01;11.00;99.90
20712;DHT22;10517;50.742;4.224;2023-02-23T15:22:32;11.00;99.90
20712;DHT22;10517;50.742;4.224;2023-02-23T15:25:00;10.90;99.90
20712;DHT22;10517;50.742;4.224;2023-02-23T15:27:37;11.00;99.90
20712;DHT22;10517;50.742;4.224;2023-02-23T15:30:28;11.00;99.90
20712;DHT22;10517;50.742;4.224;2023-02-23T15:33:09;11.10;99.90
20712;DHT22;10517;50.742;4.224;2023-02-23T15:35:53;11.20;99.90
20712;DHT22;10517;50.742;4.224;2023-02-23T15:38:25;11.20;99.90
20712;DHT22;10517;50.742;4.224;2023-02-23T15:40:59;11.20;99.90
20712;DHT22;10517;50.742;4.224;2023-02-23T15:43:27;11.20;99.90
20712;DHT22;10517;50.742;4.224;2023-02-23T15:45:55;11.20;99.90
20712;DHT22;10517;50.742;4.224;2023-02-23T15:48:27;11.20;99.90
20712;DHT22;10517;50.742;4.224;2023-02-23T15:50:56;11.30;99.90
20712;DHT22;10517;50.742;4.224;2023-02-23T15:53:37;11.20;99.90
20712;DHT22;10517;50.742;4.224;2023-02-23T15:56:24;11.10;99.90
20712;DHT22;10517;50.742;4.224;2023-02-23T15:58:54;11.20;99.90
20712;DHT22;10517;50.742;4.224;2023-02-23T16:01:24;11.30;99.90
20712;DHT22;10517;50.742;4.224;2023-02-23T16:04:16;11.10;99.90
20712;DHT22;10517;50.742;4.224;2023-02-23T16:07:07;10.90;99.90
20712;DHT22;10517;50.742;4.224;2023-02-23T16:09:46;10.70;99.90
20712;DHT22;10517;50.742;4.224;2023-02-23T16:12:25;10.90;99.90
20712;DHT22;10517;50.742;4.224;2023-02-23T16:15:04;10.90;99.90
20712;DHT22;10517;50.742;4.224;2023-02-23T16:17:44;10.90;99.90
20712;DHT22;10517;50.742;4.224;2023-02-23T16:20:33;10.90;99.90
20712;DHT22;10517;50.742;4.224;2023-02-23T16:23:11;11.00;99.90
20712;DHT22;10517;50.742;4.224;2023-02-23T16:25:41;11.00;99.90
20712;DHT22;10517;50.742;4.224;2023-02-23T16:28:14;10.90;99.90
20712;DHT22;10517;50.742;4.224;2023-02-23T16:30:44;10.70;99.90
20712;DHT22;10517;50.742;4.224;2023-02-23T16:33:23;10.70;99.90
20712;DHT22;10517;50.742;4.224;2023-02-23T16:35:51;10.80;99.90
20712;DHT22;10517;50.742;4.224;2023-02-23T16:39:17;10.70;99.90
20712;DHT22;10517;50.742;4.224;2023-02-23T16:41:19;10.60;99.90
20712;DHT22;10517;50.742;4.224;2023-02-23T16:43:47;10.50;99.90
20712;DHT22;10517;50.742;4.224;2023-02-23T16:46:14;10.50;99.90
20712;DHT22;10517;50.742;4.224;2023-02-23T16:48:40;10.40;99.90
20712;DHT22;10517;50.742;4.224;2023-02-23T16:51:32;10.50;99.90
20712;DHT22;10517;50.742;4.224;2023-02-23T16:53:59;10.50;99.90
20712;DHT22;10517;50.742;4.224;2023-02-23T16:56:24;10.60;99.90
20712;DHT22;10517;50.742;4.224;2023-02-23T16:58:54;10.60;99.90
20712;DHT22;10517;50.742;4.224;2023-02-23T17:01:21;10.60;99.90
20712;DHT22;10517;50.742;4.224;2023-02-23T17:03:46;10.50;99.90
20712;DHT22;10517;50.742;4.224;2023-02-23T17:06:12;10.40;99.90
20712;DHT22;10517;50.742;4.224;2023-02-23T17:08:38;10.30;99.90
20712;DHT22;10517;50.742;4.224;2023-02-23T17:11:04;10.10;99.90
20712;DHT22;10517;50.742;4.224;2023-02-23T17:13:31;10.00;99.90
20712;DHT22;10517;50.742;4.224;2023-02-23T17:16:02;10.00;99.90
20712;DHT22;10517;50.742;4.224;2023-02-23T17:18:30;10.10;99.90
20712;DHT22;10517;50.742;4.224;2023-02-23T17:20:58;10.10;99.90
20712;DHT22;10517;50.742;4.224;2023-02-23T17:23:26;10.00;99.90
20712;DHT22;10517;50.742;4.224;2023-02-23T17:25:54;10.00;99.90
20712;DHT22;10517;50.742;4.224;2023-02-23T17:28:20;10.10;99.90
20712;DHT22;10517;50.742;4.224;2023-02-23T17:30:46;10.20;99.90
20712;DHT22;10517;50.742;4.224;2023-02-23T17:33:12;10.10;99.90
20712;DHT22;10517;50.742;4.224;2023-02-23T17:35:37;9.90;99.90
20712;DHT22;10517;50.742;4.224;2023-02-23T17:38:04;9.80;99.90
20712;DHT22;10517;50.742;4.224;2023-02-23T17:40:30;9.80;99.90
20712;DHT22;10517;50.742;4.224;2023-02-23T17:43:00;9.80;99.90
20712;DHT22;10517;50.742;4.224;2023-02-23T17:45:26;9.90;99.90
20712;DHT22;10517;50.742;4.224;2023-02-23T17:47:53;9.80;99.90
20712;DHT22;10517;50.742;4.224;2023-02-23T17:50:19;9.80;99.90
20712;DHT22;10517;50.742;4.224;2023-02-23T17:52:47;9.70;99.90
20712;DHT22;10517;50.742;4.224;2023-02-23T17:55:12;9.70;99.90
20712;DHT22;10517;50.742;4.224;2023-02-23T17:57:38;9.60;99.90
20712;DHT22;10517;50.742;4.224;2023-02-23T18:00:04;9.50;99.90
20712;DHT22;10517;50.742;4.224;2023-02-23T18:02:31;9.60;99.90
20712;DHT22;10517;50.742;4.224;2023-02-23T18:04:57;9.60;99.90
20712;DHT22;10517;50.742;4.224;2023-02-23T18:07:23;9.60;99.90
20712;DHT22;10517;50.742;4.224;2023-02-23T18:09:49;9.50;99.90
20712;DHT22;10517;50.742;4.224;2023-02-23T18:12:16;9.50;99.90